sensor_id;sensor_type;location;lat;lon;timestamp;P1;durP1;ratioP1;P2;durP2;ratioP2
31910;SDS011;18457;52.432;16.914;2022-11-15T00:00:39;120.60;;;52.80;;
31910;SDS011;18457;52.432;16.914;2022-11-15T00:03:30;124.30;;;54.70;;
31910;SDS011;18457;52.432;16.914;2022-11-15T00:06:22;124.00;;;50.90;;
31910;SDS011;18457;52.432;16.914;2022-11-15T00:09:13;134.60;;;54.20;;
31910;SDS011;18457;52.432;16.914;2022-11-15T00:12:05;141.90;;;54.20;;
31910;SDS011;18457;52.432;16.914;2022-11-15T00:14:55;152.60;;;55.20;;
31910;SDS011;18457;52.432;16.914;2022-11-15T00:17:49;118.80;;;54.10;;
31910;SDS011;18457;52.432;16.914;2022-11-15T00:20:40;122.50;;;52.90;;
31910;SDS011;18457;52.432;16.914;2022-11-15T00:23:30;124.30;;;53.90;;
31910;SDS011;18457;52.432;16.914;2022-11-15T00:26:21;147.10;;;55.20;;
31910;SDS011;18457;52.432;16.914;2022-11-15T00:29:11;119.80;;;52.50;;
31910;SDS011;18457;52.432;16.914;2022-11-15T00:32:02;154.90;;;56.00;;
31910;SDS011;18457;52.432;16.914;2022-11-15T00:34:52;123.20;;;53.30;;
31910;SDS011;18457;52.432;16.914;2022-11-15T00:37:44;131.70;;;54.00;;
31910;SDS011;18457;52.432;16.914;2022-11-15T00:40:35;126.80;;;55.70;;
31910;SDS011;18457;52.432;16.914;2022-11-15T00:43:27;118.30;;;53.20;;
31910;SDS011;18457;52.432;16.914;2022-11-15T00:46:18;130.00;;;54.90;;
31910;SDS011;18457;52.432;16.914;2022-11-15T00:49:09;116.20;;;52.40;;
31910;SDS011;18457;52.432;16.914;2022-11-15T00:52:00;139.80;;;50.50;;
31910;SDS011;18457;52.432;16.914;2022-11-15T00:54:52;128.80;;;55.90;;
31910;SDS011;18457;52.432;16.914;2022-11-15T00:57:45;117.50;;;53.30;;
31910;SDS011;18457;52.432;16.914;2022-11-15T01:00:36;158.30;;;55.90;;
31910;SDS011;18457;52.432;16.914;2022-11-15T01:03:28;122.60;;;54.20;;
31910;SDS011;18457;52.432;16.914;2022-11-15T01:06:23;120.20;;;53.80;;
31910;SDS011;18457;52.432;16.914;2022-11-15T01:09:14;120.90;;;54.70;;
31910;SDS011;18457;52.432;16.914;2022-11-15T01:12:06;129.70;;;56.00;;
31910;SDS011;18457;52.432;16.914;2022-11-15T01:14:57;131.80;;;56.80;;
31910;SDS011;18457;52.432;16.914;2022-11-15T01:17:48;133.00;;;55.20;;
31910;SDS011;18457;52.432;16.914;2022-11-15T01:20:40;140.10;;;56.30;;
31910;SDS011;18457;52.432;16.914;2022-11-15T01:23:32;150.10;;;55.50;;
31910;SDS011;18457;52.432;16.914;2022-11-15T01:26:24;124.90;;;53.60;;
31910;SDS011;18457;52.432;16.914;2022-11-15T01:29:16;138.40;;;55.60;;
31910;SDS011;18457;52.432;16.914;2022-11-15T01:32:07;87.70;;;35.90;;
31910;SDS011;18457;52.432;16.914;2022-11-15T01:35:01;126.40;;;53.40;;
31910;SDS011;18457;52.432;16.914;2022-11-15T01:37:52;116.50;;;52.70;;
31910;SDS011;18457;52.432;16.914;2022-11-15T01:40:45;143.40;;;57.10;;
31910;SDS011;18457;52.432;16.914;2022-11-15T01:43:36;117.00;;;51.10;;
31910;SDS011;18457;52.432;16.914;2022-11-15T01:46:29;88.20;;;38.50;;
31910;SDS011;18457;52.432;16.914;2022-11-15T01:49:22;126.30;;;53.80;;
31910;SDS011;18457;52.432;16.914;2022-11-15T01:52:17;122.10;;;54.60;;
31910;SDS011;18457;52.432;16.914;2022-11-15T01:55:12;116.90;;;51.60;;
31910;SDS011;18457;52.432;16.914;2022-11-15T01:58:08;122.30;;;54.50;;
31910;SDS011;18457;52.432;16.914;2022-11-15T02:00:59;124.40;;;52.40;;
31910;SDS011;18457;52.432;16.914;2022-11-15T02:03:50;149.00;;;51.50;;
31910;SDS011;18457;52.432;16.914;2022-11-15T02:06:46;123.90;;;53.10;;
31910;SDS011;18457;52.432;16.914;2022-11-15T02:09:39;130.10;;;51.90;;
31910;SDS011;18457;52.432;16.914;2022-11-15T02:12:32;164.90;;;52.50;;
31910;SDS011;18457;52.432;16.914;2022-11-15T02:15:24;112.70;;;50.70;;
31910;SDS011;18457;52.432;16.914;2022-11-15T02:18:24;122.00;;;54.70;;
31910;SDS011;18457;52.432;16.914;2022-11-15T02:21:23;115.70;;;50.20;;
31910;SDS011;18457;52.432;16.914;2022-11-15T02:24:30;117.50;;;52.10;;
31910;SDS011;18457;52.432;16.914;2022-11-15T02:31:02;99.80;;;49.70;;
31910;SDS011;18457;52.432;16.914;2022-11-15T02:34:02;109.80;;;49.80;;
31910;SDS011;18457;52.432;16.914;2022-11-15T02:37:02;116.70;;;50.60;;
31910;SDS011;18457;52.432;16.914;2022-11-15T02:40:00;121.10;;;49.40;;
31910;SDS011;18457;52.432;16.914;2022-11-15T02:43:03;132.80;;;50.10;;
31910;SDS011;18457;52.432;16.914;2022-11-15T02:46:15;126.00;;;50.70;;
31910;SDS011;18457;52.432;16.914;2022-11-15T02:49:32;124.00;;;51.20;;
31910;SDS011;18457;52.432;16.914;2022-11-15T02:52:25;103.40;;;48.60;;
31910;SDS011;18457;52.432;16.914;2022-11-15T02:58:37;110.90;;;50.10;;
31910;SDS011;18457;52.432;16.914;2022-11-15T03:04:42;104.30;;;47.70;;
31910;SDS011;18457;52.432;16.914;2022-11-15T03:07:40;113.30;;;47.00;;
31910;SDS011;18457;52.432;16.914;2022-11-15T03:10:49;112.80;;;51.00;;
31910;SDS011;18457;52.432;16.914;2022-11-15T03:13:50;130.10;;;50.30;;
31910;SDS011;18457;52.432;16.914;2022-11-15T03:16:47;116.30;;;49.00;;
31910;SDS011;18457;52.432;16.914;2022-11-15T03:19:45;149.80;;;50.20;;
31910;SDS011;18457;52.432;16.914;2022-11-15T03:22:40;141.70;;;49.90;;
31910;SDS011;18457;52.432;16.914;2022-11-15T03:25:33;150.50;;;51.50;;
31910;SDS011;18457;52.432;16.914;2022-11-15T03:28:28;103.90;;;50.20;;
31910;SDS011;18457;52.432;16.914;2022-11-15T03:31:22;156.80;;;51.00;;
31910;SDS011;18457;52.432;16.914;2022-11-15T03:34:39;134.70;;;50.20;;
31910;SDS011;18457;52.432;16.914;2022-11-15T03:37:35;113.10;;;48.30;;
31910;SDS011;18457;52.432;16.914;2022-11-15T03:40:33;127.60;;;49.40;;
31910;SDS011;18457;52.432;16.914;2022-11-15T03:43:30;118.40;;;50.00;;
31910;SDS011;18457;52.432;16.914;2022-11-15T03:46:29;107.30;;;47.40;;
31910;SDS011;18457;52.432;16.914;2022-11-15T03:49:27;108.80;;;49.90;;
31910;SDS011;18457;52.432;16.914;2022-11-15T03:52:22;152.40;;;49.60;;
31910;SDS011;18457;52.432;16.914;2022-11-15T03:55:15;117.40;;;47.30;;
31910;SDS011;18457;52.432;16.914;2022-11-15T03:58:07;124.90;;;49.50;;
31910;SDS011;18457;52.432;16.914;2022-11-15T04:00:58;140.80;;;48.30;;
31910;SDS011;18457;52.432;16.914;2022-11-15T04:03:49;132.40;;;48.50;;
31910;SDS011;18457;52.432;16.914;2022-11-15T04:06:42;118.50;;;47.20;;
31910;SDS011;18457;52.432;16.914;2022-11-15T04:09:33;124.40;;;50.60;;
31910;SDS011;18457;52.432;16.914;2022-11-15T04:12:46;114.00;;;46.10;;
31910;SDS011;18457;52.432;16.914;2022-11-15T04:15:37;118.00;;;49.30;;
31910;SDS011;18457;52.432;16.914;2022-11-15T04:18:28;102.20;;;45.40;;
31910;SDS011;18457;52.432;16.914;2022-11-15T04:21:20;114.50;;;47.50;;
31910;SDS011;18457;52.432;16.914;2022-11-15T04:24:28;138.10;;;46.90;;
31910;SDS011;18457;52.432;16.914;2022-11-15T04:27:20;102.00;;;44.60;;
31910;SDS011;18457;52.432;16.914;2022-11-15T04:30:12;103.60;;;46.10;;
31910;SDS011;18457;52.432;16.914;2022-11-15T04:33:05;175.90;;;47.60;;
31910;SDS011;18457;52.432;16.914;2022-11-15T04:35:56;92.00;;;44.00;;
31910;SDS011;18457;52.432;16.914;2022-11-15T04:39:05;107.10;;;45.70;;
31910;SDS011;18457;52.432;16.914;2022-11-15T04:41:57;142.00;;;47.90;;
31910;SDS011;18457;52.432;16.914;2022-11-15T04:44:48;152.60;;;49.10;;
31910;SDS011;18457;52.432;16.914;2022-11-15T04:47:39;103.60;;;46.40;;
31910;SDS011;18457;52.432;16.914;2022-11-15T04:50:31;123.40;;;46.20;;
31910;SDS011;18457;52.432;16.914;2022-11-15T04:53:22;179.70;;;47.10;;
31910;SDS011;18457;52.432;16.914;2022-11-15T04:56:13;131.30;;;47.90;;
31910;SDS011;18457;52.432;16.914;2022-11-15T04:59:04;134.20;;;47.10;;
31910;SDS011;18457;52.432;16.914;2022-11-15T05:01:55;104.50;;;48.10;;
31910;SDS011;18457;52.432;16.914;2022-11-15T05:04:46;99.60;;;45.70;;
31910;SDS011;18457;52.432;16.914;2022-11-15T05:07:37;104.20;;;47.90;;
31910;SDS011;18457;52.432;16.914;2022-11-15T05:10:28;106.20;;;48.30;;
31910;SDS011;18457;52.432;16.914;2022-11-15T05:13:18;101.70;;;48.20;;
31910;SDS011;18457;52.432;16.914;2022-11-15T05:16:10;106.20;;;46.00;;
31910;SDS011;18457;52.432;16.914;2022-11-15T05:19:01;104.50;;;50.10;;
31910;SDS011;18457;52.432;16.914;2022-11-15T05:21:52;102.70;;;47.50;;
31910;SDS011;18457;52.432;16.914;2022-11-15T05:24:43;100.30;;;48.60;;
31910;SDS011;18457;52.432;16.914;2022-11-15T05:27:34;187.30;;;52.30;;
31910;SDS011;18457;52.432;16.914;2022-11-15T05:30:24;109.70;;;49.90;;
31910;SDS011;18457;52.432;16.914;2022-11-15T05:33:14;120.70;;;50.00;;
31910;SDS011;18457;52.432;16.914;2022-11-15T05:36:07;174.40;;;52.70;;
31910;SDS011;18457;52.432;16.914;2022-11-15T05:39:02;168.70;;;51.30;;
31910;SDS011;18457;52.432;16.914;2022-11-15T05:41:56;126.40;;;53.10;;
31910;SDS011;18457;52.432;16.914;2022-11-15T05:44:53;162.30;;;51.50;;
31910;SDS011;18457;52.432;16.914;2022-11-15T05:47:45;117.30;;;51.50;;
31910;SDS011;18457;52.432;16.914;2022-11-15T05:50:37;204.40;;;51.90;;
31910;SDS011;18457;52.432;16.914;2022-11-15T05:53:31;113.30;;;50.70;;
31910;SDS011;18457;52.432;16.914;2022-11-15T05:56:21;182.80;;;52.50;;
31910;SDS011;18457;52.432;16.914;2022-11-15T05:59:12;129.60;;;54.50;;
31910;SDS011;18457;52.432;16.914;2022-11-15T06:02:03;117.70;;;53.60;;
31910;SDS011;18457;52.432;16.914;2022-11-15T06:04:53;179.60;;;56.80;;
31910;SDS011;18457;52.432;16.914;2022-11-15T06:07:43;164.00;;;53.50;;
31910;SDS011;18457;52.432;16.914;2022-11-15T06:10:34;139.70;;;52.60;;
31910;SDS011;18457;52.432;16.914;2022-11-15T06:13:24;168.20;;;51.60;;
31910;SDS011;18457;52.432;16.914;2022-11-15T06:16:15;129.30;;;51.30;;
31910;SDS011;18457;52.432;16.914;2022-11-15T06:19:07;117.00;;;50.90;;
31910;SDS011;18457;52.432;16.914;2022-11-15T06:21:58;114.90;;;50.80;;
31910;SDS011;18457;52.432;16.914;2022-11-15T06:24:50;159.60;;;51.40;;
31910;SDS011;18457;52.432;16.914;2022-11-15T06:27:40;148.50;;;49.30;;
31910;SDS011;18457;52.432;16.914;2022-11-15T06:30:31;127.60;;;48.80;;
31910;SDS011;18457;52.432;16.914;2022-11-15T06:33:21;158.00;;;50.20;;
31910;SDS011;18457;52.432;16.914;2022-11-15T06:36:13;157.70;;;49.60;;
31910;SDS011;18457;52.432;16.914;2022-11-15T06:39:05;106.50;;;50.90;;
31910;SDS011;18457;52.432;16.914;2022-11-15T06:41:55;208.50;;;52.00;;
31910;SDS011;18457;52.432;16.914;2022-11-15T06:44:45;138.50;;;50.90;;
31910;SDS011;18457;52.432;16.914;2022-11-15T06:47:36;103.40;;;46.60;;
31910;SDS011;18457;52.432;16.914;2022-11-15T06:50:34;180.60;;;49.90;;
31910;SDS011;18457;52.432;16.914;2022-11-15T06:53:26;121.10;;;49.80;;
31910;SDS011;18457;52.432;16.914;2022-11-15T06:56:17;113.80;;;48.40;;
31910;SDS011;18457;52.432;16.914;2022-11-15T06:59:08;105.40;;;48.30;;
31910;SDS011;18457;52.432;16.914;2022-11-15T07:01:58;162.10;;;50.60;;
31910;SDS011;18457;52.432;16.914;2022-11-15T07:04:49;208.90;;;49.00;;
31910;SDS011;18457;52.432;16.914;2022-11-15T07:07:39;168.20;;;47.90;;
31910;SDS011;18457;52.432;16.914;2022-11-15T07:10:30;256.10;;;53.20;;
31910;SDS011;18457;52.432;16.914;2022-11-15T07:13:20;145.10;;;48.60;;
31910;SDS011;18457;52.432;16.914;2022-11-15T07:16:14;111.90;;;48.90;;
31910;SDS011;18457;52.432;16.914;2022-11-15T07:19:05;107.80;;;48.40;;
31910;SDS011;18457;52.432;16.914;2022-11-15T07:21:56;108.20;;;49.20;;
31910;SDS011;18457;52.432;16.914;2022-11-15T07:24:47;93.50;;;45.80;;
31910;SDS011;18457;52.432;16.914;2022-11-15T07:27:38;198.00;;;49.20;;
31910;SDS011;18457;52.432;16.914;2022-11-15T07:30:28;122.70;;;47.10;;
31910;SDS011;18457;52.432;16.914;2022-11-15T07:33:19;104.50;;;47.80;;
31910;SDS011;18457;52.432;16.914;2022-11-15T07:36:09;145.00;;;47.80;;
31910;SDS011;18457;52.432;16.914;2022-11-15T07:39:00;97.80;;;43.00;;
31910;SDS011;18457;52.432;16.914;2022-11-15T07:41:51;104.90;;;46.80;;
31910;SDS011;18457;52.432;16.914;2022-11-15T07:45:02;102.10;;;44.20;;
31910;SDS011;18457;52.432;16.914;2022-11-15T07:47:53;97.50;;;43.80;;
31910;SDS011;18457;52.432;16.914;2022-11-15T07:50:44;107.90;;;46.20;;
31910;SDS011;18457;52.432;16.914;2022-11-15T07:53:34;118.90;;;46.90;;
31910;SDS011;18457;52.432;16.914;2022-11-15T07:56:25;94.70;;;46.60;;
31910;SDS011;18457;52.432;16.914;2022-11-15T07:59:15;90.70;;;45.60;;
31910;SDS011;18457;52.432;16.914;2022-11-15T08:02:08;93.30;;;45.10;;
31910;SDS011;18457;52.432;16.914;2022-11-15T08:04:59;90.40;;;45.00;;
31910;SDS011;18457;52.432;16.914;2022-11-15T08:07:49;98.70;;;46.60;;
31910;SDS011;18457;52.432;16.914;2022-11-15T08:10:39;95.20;;;46.20;;
31910;SDS011;18457;52.432;16.914;2022-11-15T08:13:29;93.70;;;43.30;;
31910;SDS011;18457;52.432;16.914;2022-11-15T08:16:21;101.40;;;47.20;;
31910;SDS011;18457;52.432;16.914;2022-11-15T08:19:12;99.40;;;48.20;;
31910;SDS011;18457;52.432;16.914;2022-11-15T08:22:02;93.40;;;43.80;;
31910;SDS011;18457;52.432;16.914;2022-11-15T08:24:53;101.20;;;46.90;;
31910;SDS011;18457;52.432;16.914;2022-11-15T08:27:44;95.20;;;46.10;;
31910;SDS011;18457;52.432;16.914;2022-11-15T08:30:35;108.40;;;48.10;;
31910;SDS011;18457;52.432;16.914;2022-11-15T08:33:29;99.70;;;47.50;;
31910;SDS011;18457;52.432;16.914;2022-11-15T08:36:21;101.00;;;48.10;;
31910;SDS011;18457;52.432;16.914;2022-11-15T08:39:12;108.00;;;48.80;;
31910;SDS011;18457;52.432;16.914;2022-11-15T08:42:02;108.80;;;49.90;;
31910;SDS011;18457;52.432;16.914;2022-11-15T08:44:53;122.70;;;48.20;;
31910;SDS011;18457;52.432;16.914;2022-11-15T08:47:43;124.80;;;47.70;;
31910;SDS011;18457;52.432;16.914;2022-11-15T08:50:40;111.30;;;49.40;;
31910;SDS011;18457;52.432;16.914;2022-11-15T08:53:32;97.00;;;47.80;;
31910;SDS011;18457;52.432;16.914;2022-11-15T08:56:22;182.20;;;51.20;;
31910;SDS011;18457;52.432;16.914;2022-11-15T08:59:12;115.50;;;50.60;;
31910;SDS011;18457;52.432;16.914;2022-11-15T09:02:03;120.30;;;50.00;;
31910;SDS011;18457;52.432;16.914;2022-11-15T09:04:53;104.20;;;49.70;;
31910;SDS011;18457;52.432;16.914;2022-11-15T09:07:44;119.90;;;51.30;;
31910;SDS011;18457;52.432;16.914;2022-11-15T09:10:35;116.50;;;50.80;;
31910;SDS011;18457;52.432;16.914;2022-11-15T09:13:26;107.90;;;50.30;;
31910;SDS011;18457;52.432;16.914;2022-11-15T09:16:17;114.10;;;53.00;;
31910;SDS011;18457;52.432;16.914;2022-11-15T09:19:08;118.10;;;53.50;;
31910;SDS011;18457;52.432;16.914;2022-11-15T09:21:59;112.80;;;53.20;;
31910;SDS011;18457;52.432;16.914;2022-11-15T09:24:50;117.10;;;53.30;;
31910;SDS011;18457;52.432;16.914;2022-11-15T09:27:40;117.80;;;51.70;;
31910;SDS011;18457;52.432;16.914;2022-11-15T09:30:31;130.00;;;54.10;;
31910;SDS011;18457;52.432;16.914;2022-11-15T09:33:23;115.10;;;52.20;;
31910;SDS011;18457;52.432;16.914;2022-11-15T09:36:14;126.20;;;54.50;;
31910;SDS011;18457;52.432;16.914;2022-11-15T09:39:04;114.90;;;53.90;;
31910;SDS011;18457;52.432;16.914;2022-11-15T09:42:01;122.30;;;54.30;;
31910;SDS011;18457;52.432;16.914;2022-11-15T09:45:15;117.50;;;56.60;;
31910;SDS011;18457;52.432;16.914;2022-11-15T09:51:30;120.60;;;55.00;;
31910;SDS011;18457;52.432;16.914;2022-11-15T09:54:11;139.60;;;56.30;;
31910;SDS011;18457;52.432;16.914;2022-11-15T09:57:16;126.60;;;56.70;;
31910;SDS011;18457;52.432;16.914;2022-11-15T09:59:54;126.70;;;59.20;;
31910;SDS011;18457;52.432;16.914;2022-11-15T10:03:02;124.00;;;58.60;;
31910;SDS011;18457;52.432;16.914;2022-11-15T10:05:43;123.00;;;56.90;;
31910;SDS011;18457;52.432;16.914;2022-11-15T10:08:28;118.30;;;55.80;;
31910;SDS011;18457;52.432;16.914;2022-11-15T10:11:06;117.20;;;55.50;;
31910;SDS011;18457;52.432;16.914;2022-11-15T10:14:02;126.90;;;56.40;;
31910;SDS011;18457;52.432;16.914;2022-11-15T10:16:45;125.00;;;55.80;;
31910;SDS011;18457;52.432;16.914;2022-11-15T10:19:33;129.40;;;57.10;;
31910;SDS011;18457;52.432;16.914;2022-11-15T10:22:26;129.90;;;59.60;;
31910;SDS011;18457;52.432;16.914;2022-11-15T10:25:13;135.60;;;58.90;;
31910;SDS011;18457;52.432;16.914;2022-11-15T10:27:50;136.40;;;57.30;;
31910;SDS011;18457;52.432;16.914;2022-11-15T10:30:31;137.30;;;60.60;;
31910;SDS011;18457;52.432;16.914;2022-11-15T10:33:13;128.30;;;56.40;;
31910;SDS011;18457;52.432;16.914;2022-11-15T10:38:52;130.20;;;59.40;;
31910;SDS011;18457;52.432;16.914;2022-11-15T10:41:34;127.90;;;60.30;;
31910;SDS011;18457;52.432;16.914;2022-11-15T10:44:09;94.90;;;44.20;;
31910;SDS011;18457;52.432;16.914;2022-11-15T10:46:48;145.40;;;61.80;;
31910;SDS011;18457;52.432;16.914;2022-11-15T10:49:34;119.60;;;57.20;;
31910;SDS011;18457;52.432;16.914;2022-11-15T10:52:12;142.20;;;60.90;;
31910;SDS011;18457;52.432;16.914;2022-11-15T10:54:49;141.60;;;61.00;;
31910;SDS011;18457;52.432;16.914;2022-11-15T10:57:25;133.70;;;61.30;;
31910;SDS011;18457;52.432;16.914;2022-11-15T11:00:00;130.50;;;58.70;;
31910;SDS011;18457;52.432;16.914;2022-11-15T11:02:36;139.40;;;63.10;;
31910;SDS011;18457;52.432;16.914;2022-11-15T11:08:23;130.10;;;58.40;;
31910;SDS011;18457;52.432;16.914;2022-11-15T11:10:56;140.20;;;59.60;;
31910;SDS011;18457;52.432;16.914;2022-11-15T11:13:32;123.50;;;57.50;;
31910;SDS011;18457;52.432;16.914;2022-11-15T11:16:18;127.70;;;60.00;;
31910;SDS011;18457;52.432;16.914;2022-11-15T11:19:10;140.20;;;60.10;;
31910;SDS011;18457;52.432;16.914;2022-11-15T11:21:54;130.30;;;57.60;;
31910;SDS011;18457;52.432;16.914;2022-11-15T11:24:32;135.80;;;59.20;;
31910;SDS011;18457;52.432;16.914;2022-11-15T11:27:16;141.60;;;57.90;;
31910;SDS011;18457;52.432;16.914;2022-11-15T11:30:03;147.90;;;63.20;;
31910;SDS011;18457;52.432;16.914;2022-11-15T11:35:36;135.70;;;60.30;;
31910;SDS011;18457;52.432;16.914;2022-11-15T11:38:19;129.70;;;57.90;;
31910;SDS011;18457;52.432;16.914;2022-11-15T11:41:06;127.00;;;59.90;;
31910;SDS011;18457;52.432;16.914;2022-11-15T11:43:49;132.50;;;58.00;;
31910;SDS011;18457;52.432;16.914;2022-11-15T11:46:35;127.00;;;56.30;;
31910;SDS011;18457;52.432;16.914;2022-11-15T11:49:18;134.90;;;60.50;;
31910;SDS011;18457;52.432;16.914;2022-11-15T11:51:56;144.60;;;60.00;;
31910;SDS011;18457;52.432;16.914;2022-11-15T11:54:34;135.40;;;64.40;;
31910;SDS011;18457;52.432;16.914;2022-11-15T11:57:17;138.00;;;62.30;;
31910;SDS011;18457;52.432;16.914;2022-11-15T12:00:00;134.50;;;58.70;;
31910;SDS011;18457;52.432;16.914;2022-11-15T12:02:43;141.20;;;62.20;;
31910;SDS011;18457;52.432;16.914;2022-11-15T12:05:22;139.30;;;62.50;;
31910;SDS011;18457;52.432;16.914;2022-11-15T12:08:01;136.50;;;60.40;;
31910;SDS011;18457;52.432;16.914;2022-11-15T12:10:48;139.10;;;60.80;;
31910;SDS011;18457;52.432;16.914;2022-11-15T12:13:28;129.60;;;58.90;;
31910;SDS011;18457;52.432;16.914;2022-11-15T12:16:07;149.50;;;62.20;;
31910;SDS011;18457;52.432;16.914;2022-11-15T12:18:46;133.70;;;59.20;;
31910;SDS011;18457;52.432;16.914;2022-11-15T12:21:31;132.80;;;59.90;;
31910;SDS011;18457;52.432;16.914;2022-11-15T12:24:11;132.90;;;59.00;;
31910;SDS011;18457;52.432;16.914;2022-11-15T12:26:48;150.80;;;61.10;;
31910;SDS011;18457;52.432;16.914;2022-11-15T12:29:26;131.50;;;59.40;;
31910;SDS011;18457;52.432;16.914;2022-11-15T12:32:03;142.20;;;64.10;;
31910;SDS011;18457;52.432;16.914;2022-11-15T12:34:45;134.90;;;59.90;;
31910;SDS011;18457;52.432;16.914;2022-11-15T12:40:34;153.40;;;64.20;;
31910;SDS011;18457;52.432;16.914;2022-11-15T12:46:18;150.00;;;62.90;;
31910;SDS011;18457;52.432;16.914;2022-11-15T12:48:53;157.20;;;67.90;;
31910;SDS011;18457;52.432;16.914;2022-11-15T12:57:41;153.30;;;66.20;;
31910;SDS011;18457;52.432;16.914;2022-11-15T13:03:18;155.80;;;66.30;;
31910;SDS011;18457;52.432;16.914;2022-11-15T13:05:55;152.70;;;64.60;;
31910;SDS011;18457;52.432;16.914;2022-11-15T13:17:33;158.60;;;66.40;;
31910;SDS011;18457;52.432;16.914;2022-11-15T13:20:25;148.70;;;66.50;;
31910;SDS011;18457;52.432;16.914;2022-11-15T13:23:02;151.50;;;66.90;;
31910;SDS011;18457;52.432;16.914;2022-11-15T13:28:43;153.70;;;63.60;;
31910;SDS011;18457;52.432;16.914;2022-11-15T13:31:23;146.30;;;63.80;;
31910;SDS011;18457;52.432;16.914;2022-11-15T13:33:59;158.00;;;66.90;;
31910;SDS011;18457;52.432;16.914;2022-11-15T13:36:53;152.90;;;69.80;;
31910;SDS011;18457;52.432;16.914;2022-11-15T13:39:30;156.30;;;70.00;;
31910;SDS011;18457;52.432;16.914;2022-11-15T13:42:03;162.80;;;69.90;;
31910;SDS011;18457;52.432;16.914;2022-11-15T13:44:55;160.50;;;68.00;;
31910;SDS011;18457;52.432;16.914;2022-11-15T13:47:28;156.70;;;64.70;;
31910;SDS011;18457;52.432;16.914;2022-11-15T13:50:00;159.90;;;66.10;;
31910;SDS011;18457;52.432;16.914;2022-11-15T13:52:40;138.10;;;62.80;;
31910;SDS011;18457;52.432;16.914;2022-11-15T13:55:18;140.70;;;62.10;;
31910;SDS011;18457;52.432;16.914;2022-11-15T13:57:52;156.10;;;64.50;;
31910;SDS011;18457;52.432;16.914;2022-11-15T14:00:28;160.00;;;65.40;;
31910;SDS011;18457;52.432;16.914;2022-11-15T14:03:12;159.70;;;68.80;;
31910;SDS011;18457;52.432;16.914;2022-11-15T14:06:02;169.40;;;67.40;;
31910;SDS011;18457;52.432;16.914;2022-11-15T14:08:37;161.90;;;66.30;;
31910;SDS011;18457;52.432;16.914;2022-11-15T14:11:12;166.20;;;67.40;;
31910;SDS011;18457;52.432;16.914;2022-11-15T14:16:42;163.10;;;67.70;;
31910;SDS011;18457;52.432;16.914;2022-11-15T14:22:09;169.00;;;68.10;;
31910;SDS011;18457;52.432;16.914;2022-11-15T14:30:59;197.90;;;70.10;;
31910;SDS011;18457;52.432;16.914;2022-11-15T14:33:37;173.60;;;69.50;;
31910;SDS011;18457;52.432;16.914;2022-11-15T14:36:13;174.40;;;69.30;;
31910;SDS011;18457;52.432;16.914;2022-11-15T14:38:47;165.60;;;68.50;;
31910;SDS011;18457;52.432;16.914;2022-11-15T14:41:21;156.40;;;65.80;;
31910;SDS011;18457;52.432;16.914;2022-11-15T14:43:54;154.20;;;65.10;;
31910;SDS011;18457;52.432;16.914;2022-11-15T14:46:27;147.80;;;60.30;;
31910;SDS011;18457;52.432;16.914;2022-11-15T14:48:59;143.50;;;60.70;;
31910;SDS011;18457;52.432;16.914;2022-11-15T14:51:30;193.90;;;65.80;;
31910;SDS011;18457;52.432;16.914;2022-11-15T14:54:02;109.60;;;44.70;;
31910;SDS011;18457;52.432;16.914;2022-11-15T14:56:34;163.20;;;64.00;;
31910;SDS011;18457;52.432;16.914;2022-11-15T14:59:06;157.70;;;61.20;;
31910;SDS011;18457;52.432;16.914;2022-11-15T15:01:38;183.60;;;61.50;;
31910;SDS011;18457;52.432;16.914;2022-11-15T15:04:11;164.00;;;59.60;;
31910;SDS011;18457;52.432;16.914;2022-11-15T15:06:43;117.20;;;46.50;;
31910;SDS011;18457;52.432;16.914;2022-11-15T15:09:16;172.50;;;66.40;;
31910;SDS011;18457;52.432;16.914;2022-11-15T15:11:47;150.70;;;64.60;;
31910;SDS011;18457;52.432;16.914;2022-11-15T15:14:19;131.20;;;55.90;;
31910;SDS011;18457;52.432;16.914;2022-11-15T15:16:52;135.30;;;59.70;;
31910;SDS011;18457;52.432;16.914;2022-11-15T15:19:24;125.80;;;54.50;;
31910;SDS011;18457;52.432;16.914;2022-11-15T15:21:56;94.60;;;40.10;;
31910;SDS011;18457;52.432;16.914;2022-11-15T15:24:28;126.00;;;52.50;;
31910;SDS011;18457;52.432;16.914;2022-11-15T15:27:00;80.10;;;36.40;;
31910;SDS011;18457;52.432;16.914;2022-11-15T15:29:32;121.20;;;52.70;;
31910;SDS011;18457;52.432;16.914;2022-11-15T15:32:04;88.10;;;36.20;;
31910;SDS011;18457;52.432;16.914;2022-11-15T15:34:36;144.30;;;47.00;;
31910;SDS011;18457;52.432;16.914;2022-11-15T15:37:11;156.10;;;51.10;;
31910;SDS011;18457;52.432;16.914;2022-11-15T15:39:53;140.00;;;53.20;;
31910;SDS011;18457;52.432;16.914;2022-11-15T15:42:26;147.80;;;50.30;;
31910;SDS011;18457;52.432;16.914;2022-11-15T15:44:58;113.80;;;52.60;;
31910;SDS011;18457;52.432;16.914;2022-11-15T15:47:29;129.50;;;50.40;;
31910;SDS011;18457;52.432;16.914;2022-11-15T15:50:02;126.90;;;53.00;;
31910;SDS011;18457;52.432;16.914;2022-11-15T15:52:42;152.10;;;52.60;;
31910;SDS011;18457;52.432;16.914;2022-11-15T15:55:13;120.50;;;51.80;;
31910;SDS011;18457;52.432;16.914;2022-11-15T15:57:46;175.20;;;52.20;;
31910;SDS011;18457;52.432;16.914;2022-11-15T16:00:18;87.60;;;36.10;;
31910;SDS011;18457;52.432;16.914;2022-11-15T16:02:52;120.50;;;46.30;;
31910;SDS011;18457;52.432;16.914;2022-11-15T16:05:25;111.40;;;46.00;;
31910;SDS011;18457;52.432;16.914;2022-11-15T16:07:56;104.50;;;45.20;;
31910;SDS011;18457;52.432;16.914;2022-11-15T16:10:32;137.70;;;47.10;;
31910;SDS011;18457;52.432;16.914;2022-11-15T16:13:06;130.70;;;43.50;;
31910;SDS011;18457;52.432;16.914;2022-11-15T16:15:37;71.50;;;34.20;;
31910;SDS011;18457;52.432;16.914;2022-11-15T16:18:12;71.50;;;32.30;;
31910;SDS011;18457;52.432;16.914;2022-11-15T16:20:47;116.90;;;46.60;;
31910;SDS011;18457;52.432;16.914;2022-11-15T16:23:23;131.10;;;46.10;;
31910;SDS011;18457;52.432;16.914;2022-11-15T16:25:55;123.30;;;49.70;;
31910;SDS011;18457;52.432;16.914;2022-11-15T16:28:28;104.60;;;34.30;;
31910;SDS011;18457;52.432;16.914;2022-11-15T16:31:03;117.80;;;48.10;;
31910;SDS011;18457;52.432;16.914;2022-11-15T16:33:38;111.60;;;47.20;;
31910;SDS011;18457;52.432;16.914;2022-11-15T16:36:14;135.60;;;52.40;;
31910;SDS011;18457;52.432;16.914;2022-11-15T16:38:58;128.10;;;50.80;;
31910;SDS011;18457;52.432;16.914;2022-11-15T16:41:32;150.80;;;51.50;;
31910;SDS011;18457;52.432;16.914;2022-11-15T16:44:04;136.90;;;53.80;;
31910;SDS011;18457;52.432;16.914;2022-11-15T16:46:36;105.30;;;38.70;;
31910;SDS011;18457;52.432;16.914;2022-11-15T16:49:12;157.00;;;53.20;;
31910;SDS011;18457;52.432;16.914;2022-11-15T16:51:45;141.00;;;53.90;;